首页
METAR-TAF:

METAR-TAF

机场 :

Albert J. Ellis Airport

傑克遜維爾, 北卡罗来纳州, 美国

纬度: 34-50N, 经度: 077-37W, 海拔: 29米

当前天气观测

该预报发布于15分钟前的03:56 UTC
风速4节,风向多变
温度 17°C
湿度 55%
气压 1014 hPa
能見度: 16.1公里
少量云层高于6500英尺

METAR: KOAJ 170356Z AUTO VRB04KT 10SM FEW065 17/08 A2994 RMK AO2 SLP141 T01720083

时间: 00:11 (04:11 UTC)

预报

该预报发布于4小时和51分钟前的23:20 UTC
预报有效从17日的 00点(UTC)到 17日的 24点(UTC)
风速12节,风向,有时为24节阵风
能見度: 10公里
阴天层高于8000英尺
附近有阵雨
从 17日的 0100点(UTC)
风速9节,风向北转西北,有时为24节阵风
能見度: 10公里
多云层高于10000英尺
从 17日的 0400点(UTC)
风速10节,风向北转西北,有时为17节阵风
能見度: 10公里
散云层高于18000英尺
从 17日的 1300点(UTC)
风速8节,风向北转西北,有时为13节阵风
能見度: 10公里
天空无云
从 17日的 2200点(UTC)
风速7节,风向西北
能見度: 10公里
天空无云

TAF: KOAJ 162320Z 1700/1724 35012G24KT P6SM VCSH OVC080 FM170100 34009G24KT P6SM BKN100 FM170400 34010G17KT P6SM SCT180 FM171300 33008G13KT P6SM SKC FM172200 31007KT P6SM SKC AMD LTD TO CLD VIS AND WIND

超过4000个机场的气象观测和天气预报(METAR&TAF报告)。

可查询的气象台以黄色和红色小点在地图上表示。

将鼠标移到小点上方,可查看气象台名称。

然后点击查看天气观测和预报。

如需切换地图:点击带黑十字的绿色按钮放大地图;点击带横线的绿色按钮缩小地图;或者点击绿色箭头查看邻近地区的地图。


METAR-TAF: